Time;durP1;ratioP1;P1;durP2;ratioP2;P2;SDS_P1;SDS_P2;PMS_P1;PMS_P2;Temp;Humidity;BMP_temperature;BMP_pressure;BME280_temperature;BME280_humidity;BME280_pressure;Samples;Min_cycle;Max_cycle;Signal;HPM_P1;HPM_P2
2022/01/19 00:00:44;;;;;;;;;;;;;;;;;;2143983;27;20724;-67
2022/01/19 00:01:46;;;;;;;;;;;;;;;;;;2134834;27;20946;-67
2022/01/19 00:02:48;;;;;;;;;;;;;;;;;;2135121;27;19928;-67
2022/01/19 00:03:50;;;;;;;;;;;;;;;;;;2144088;27;20782;-67
2022/01/19 00:04:51;;;;;;;;;;;;;;;;;;2144202;27;20137;-67
2022/01/19 00:05:53;;;;;;;;;;;;;;;;;;2144221;27;20100;-67
2022/01/19 00:06:55;;;;;;;;;;;;;;;;;;2144148;27;20075;-69
2022/01/19 00:07:57;;;;;;;;;;;;;;;;;;2134711;27;19925;-66
2022/01/19 00:08:59;;;;;;;;;;;;;;;;;;2135098;27;20869;-67
2022/01/19 00:10:04;;;;;;;;;;;;;;;;;;2144092;27;19929;-66
2022/01/19 00:11:06;;;;;;;;;;;;;;;;;;2144259;27;19931;-66
2022/01/19 00:12:08;;;;;;;;;;;;;;;;;;2144041;27;19927;-69
2022/01/19 00:13:10;;;;;;;;;;;;;;;;;;2143701;27;19923;-70
2022/01/19 00:14:12;;;;;;;;;;;;;;;;;;2144082;27;19923;-69
2022/01/19 00:15:14;;;;;;;;;;;;;;;;;;2134697;27;20000;-71
2022/01/19 00:16:17;;;;;;;;;;;;;;;;;;2135155;27;19967;-69
2022/01/19 00:17:19;;;;;;;;;;;;;;;;;;2134885;27;19978;-69
2022/01/19 00:18:20;;;;;;;;;;;;;;;;;;2135126;27;19928;-69
2022/01/19 00:19:23;;;;;;;;;;;;;;;;;;2143882;27;19923;-69
2022/01/19 00:20:24;;;;;;;;;;;;;;;;;;2144130;27;19977;-69
2022/01/19 00:21:26;;;;;;;;;;;;;;;;;;2144166;27;19927;-69
2022/01/19 00:22:28;;;;;;;;;;;;;;;;;;2143955;27;19954;-69
2022/01/19 00:23:31;;;;;;;;;;;;;;;;;;2144004;27;19927;-69
2022/01/19 00:24:33;;;;;;;;;;;;;;;;;;2143997;27;19927;-69
2022/01/19 00:25:35;;;;;;;;;;;;;;;;;;2143964;27;19927;-69
2022/01/19 00:26:37;;;;;;;;;;;;;;;;;;2143975;27;20767;-69
2022/01/19 00:27:40;;;;;;;;;;;;;;;;;;2144105;27;19923;-69
2022/01/19 00:28:42;;;;;;;;;;;;;;;;;;2143996;27;19978;-69
2022/01/19 00:29:44;;;;;;;;;;;;;;;;;;2143887;27;19934;-69
2022/01/19 00:30:45;;;;;;;;;;;;;;;;;;2143637;27;19927;-69
2022/01/19 00:31:47;;;;;;;;;;;;;;;;;;2144014;27;20789;-69
2022/01/19 00:32:49;;;;;;;;;;;;;;;;;;2144011;27;20653;-69
2022/01/19 00:33:50;;;;;;;;;;;;;;;;;;2143762;27;20814;-69
2022/01/19 00:34:53;;;;;;;;;;;;;;;;;;2143785;27;19927;-69
2022/01/19 00:35:55;;;;;;;;;;;;;;;;;;2143784;27;19970;-69
2022/01/19 00:36:58;;;;;;;;;;;;;;;;;;2143682;27;19927;-69
2022/01/19 00:37:59;;;;;;;;;;;;;;;;;;2144082;27;19930;-69
2022/01/19 00:39:01;;;;;;;;;;;;;;;;;;2143883;27;20583;-69
2022/01/19 00:40:03;;;;;;;;;;;;;;;;;;2143848;27;19927;-69
2022/01/19 00:41:05;;;;;;;;;;;;;;;;;;2134592;27;20023;-67
2022/01/19 00:42:07;;;;;;;;;;;;;;;;;;2134751;27;19927;-67
2022/01/19 00:43:09;;;;;;;;;;;;;;;;;;2143783;27;19923;-68
2022/01/19 00:44:10;;;;;;;;;;;;;;;;;;2143892;27;20042;-68
2022/01/19 00:45:13;;;;;;;;;;;;;;;;;;2143772;27;19927;-68
2022/01/19 00:46:14;;;;;;;;;;;;;;;;;;2143906;27;20634;-69
2022/01/19 00:47:16;;;;;;;;;;;;;;;;;;2143862;27;19934;-69
2022/01/19 00:48:18;;;;;;;;;;;;;;;;;;2134240;27;20742;-69
2022/01/19 00:49:20;;;;;;;;;;;;;;;;;;2134787;27;19994;-70
2022/01/19 00:50:22;;;;;;;;;;;;;;;;;;2143817;27;19998;-72
2022/01/19 00:51:23;;;;;;;;;;;;;;;;;;2143727;27;19929;-72
2022/01/19 00:52:26;;;;;;;;;;;;;;;;;;2143817;27;20698;-70
2022/01/19 00:53:28;;;;;;;;;;;;;;;;;;2143569;27;20718;-70
2022/01/19 00:54:29;;;;;;;;;;;;;;;;;;2134641;27;20115;-70
2022/01/19 00:55:31;;;;;;;;;;;;;;;;;;2134932;27;20062;-71
2022/01/19 00:56:33;;;;;;;;;;;;;;;;;;2134491;27;19924;-70
2022/01/19 00:57:35;;;;;;;;;;;;;;;;;;2134556;27;19924;-70
2022/01/19 00:58:36;;;;;;;;;;;;;;;;;;2134789;27;19923;-70
2022/01/19 00:59:38;;;;;;;;;;;;;;;;;;2143633;27;19927;-70
2022/01/19 01:00:40;;;;;;;;;;;;;;;;;;2134237;27;20722;-70
2022/01/19 01:01:42;;;;;;;;;;;;;;;;;;2134591;27;19934;-70
2022/01/19 01:02:45;;;;;;;;;;;;;;;;;;2134854;27;20714;-70
2022/01/19 01:03:47;;;;;;;;;;;;;;;;;;2134409;27;20053;-70
2022/01/19 01:04:49;;;;;;;;;;;;;;;;;;2134819;27;19927;-70
2022/01/19 01:05:50;;;;;;;;;;;;;;;;;;2135015;27;19924;-71
2022/01/19 01:06:52;;;;;;;;;;;;;;;;;;2134517;27;20630;-71
2022/01/19 01:07:54;;;;;;;;;;;;;;;;;;2133346;27;19980;-71
2022/01/19 01:08:56;;;;;;;;;;;;;;;;;;2134913;27;19928;-71
2022/01/19 01:09:58;;;;;;;;;;;;;;;;;;2143572;27;19923;-73
2022/01/19 01:11:00;;;;;;;;;;;;;;;;;;2134403;27;19923;-73
2022/01/19 01:12:11;;;;;;;;;;;;;;;;;;2134894;27;19972;-73
2022/01/19 01:13:29;;;;;;;;;;;;;;;;;;2134674;27;20061;-72
2022/01/19 01:16:02;;;;;;;;;;;;;;;;;;2143621;27;19982;-70
2022/01/19 01:18:18;;;;;;;;;;;;;;;;;;2134314;27;19931;-71
2022/01/19 01:18:27;;;;;;;;;;;;;;;;;;2137651;27;19926;-72
2022/01/19 01:19:30;;;;;;;;;;;;;;;;;;2143711;27;20061;-70
2022/01/19 01:20:33;;;;;;;;;;;;;;;;;;2134403;27;19923;-71
2022/01/19 01:21:35;;;;;;;;;;;;;;;;;;2134521;27;19927;-71
2022/01/19 01:22:37;;;;;;;;;;;;;;;;;;2134128;27;19928;-70
2022/01/19 01:23:39;;;;;;;;;;;;;;;;;;2134683;27;19931;-72
2022/01/19 01:24:41;;;;;;;;;;;;;;;;;;2143557;27;19970;-72
2022/01/19 01:25:43;;;;;;;;;;;;;;;;;;2134429;27;19928;-67
2022/01/19 01:26:46;;;;;;;;;;;;;;;;;;2134983;27;19986;-67
2022/01/19 01:27:48;;;;;;;;;;;;;;;;;;2134388;27;20005;-68
2022/01/19 01:28:51;;;;;;;;;;;;;;;;;;2134680;27;20050;-68
2022/01/19 01:29:52;;;;;;;;;;;;;;;;;;2143702;27;19927;-67
2022/01/19 01:30:54;;;;;;;;;;;;;;;;;;2143433;27;19926;-68
2022/01/19 01:31:57;;;;;;;;;;;;;;;;;;2143565;27;19999;-68
2022/01/19 01:32:58;;;;;;;;;;;;;;;;;;2134331;27;19927;-68
2022/01/19 01:34:01;;;;;;;;;;;;;;;;;;2134544;27;19927;-69
2022/01/19 01:35:02;;;;;;;;;;;;;;;;;;2143254;27;19968;-70
2022/01/19 01:36:04;;;;;;;;;;;;;;;;;;2143654;27;19931;-69
2022/01/19 01:37:06;;;;;;;;;;;;;;;;;;2143747;27;19935;-68
2022/01/19 01:38:08;;;;;;;;;;;;;;;;;;2143577;27;20802;-67
2022/01/19 01:39:10;;;;;;;;;;;;;;;;;;2134375;27;19931;-67
2022/01/19 01:40:13;;;;;;;;;;;;;;;;;;2134438;27;20054;-66
2022/01/19 01:41:15;;;;;;;;;;;;;;;;;;2143514;27;19970;-68
2022/01/19 01:42:18;;;;;;;;;;;;;;;;;;2143502;27;20677;-69
2022/01/19 01:43:20;;;;;;;;;;;;;;;;;;2134220;27;19931;-68
2022/01/19 01:44:22;;;;;;;;;;;;;;;;;;2134250;27;19934;-68
2022/01/19 01:45:28;;;;;;;;;;;;;;;;;;2133953;27;20718;-69
2022/01/19 01:46:43;;;;;;;;;;;;;;;;;;2135363;27;19927;-68
2022/01/19 01:47:51;;;;;;;;;;;;;;;;;;2143707;27;20037;-68
2022/01/19 01:48:53;;;;;;;;;;;;;;;;;;2143450;27;19981;-68
2022/01/19 01:53:40;;;;;;;;;;;;;;;;;;2143375;27;19927;-68
2022/01/19 01:54:42;;;;;;;;;;;;;;;;;;2134287;27;19927;-67
2022/01/19 01:55:45;;;;;;;;;;;;;;;;;;2134495;27;20779;-68
2022/01/19 01:56:47;;;;;;;;;;;;;;;;;;2134009;27;19980;-68
2022/01/19 01:57:49;;;;;;;;;;;;;;;;;;2134611;27;19927;-68
2022/01/19 01:58:50;;;;;;;;;;;;;;;;;;2134202;27;19935;-69
2022/01/19 01:59:52;;;;;;;;;;;;;;;;;;2134606;27;19992;-68
2022/01/19 02:00:54;;;;;;;;;;;;;;;;;;2143260;27;19927;-68
2022/01/19 02:01:56;;;;;;;;;;;;;;;;;;2143562;27;20830;-68
2022/01/19 02:02:59;;;;;;;;;;;;;;;;;;2143313;27;20018;-68
2022/01/19 02:04:01;;;;;;;;;;;;;;;;;;2143407;27;19930;-68
2022/01/19 02:05:03;;;;;;;;;;;;;;;;;;2134152;27;19927;-68
2022/01/19 02:07:01;;;;;;;;;;;;;;;;;;2134446;27;20733;-69
2022/01/19 02:07:32;;;;;;;;;;;;;;;;;;2134896;27;20034;-68
2022/01/19 02:09:19;;;;;;;;;;;;;;;;;;2143139;27;20004;-68
2022/01/19 02:10:03;;;;;;;;;;;;;;;;;;2135223;27;19954;-68
2022/01/19 02:11:35;;;;;;;;;;;;;;;;;;2143415;27;19927;-68
2022/01/19 02:22:46;;;;;;;;;;;;;;;;;;2144656;27;20691;-69
2022/01/19 02:23:51;;;;;;;;;;;;;;;;;;2135564;27;19927;-69
2022/01/19 02:24:56;;;;;;;;;;;;;;;;;;2136376;27;19927;-69
2022/01/19 02:25:59;;;;;;;;;;;;;;;;;;2144857;27;19923;-69
2022/01/19 02:36:30;;;;;;;;;;;;;;;;;;2150781;27;20006;-70
2022/01/19 02:40:59;;;;;;;;;;;;;;;;;;2152298;27;20012;-69
2022/01/19 02:42:04;;;;;;;;;;;;;;;;;;2144106;27;19923;-69
2022/01/19 02:43:10;;;;;;;;;;;;;;;;;;2143926;27;20160;-69
2022/01/19 02:44:25;;;;;;;;;;;;;;;;;;2145013;27;19931;-70
2022/01/19 02:49:18;;;;;;;;;;;;;;;;;;2128809;27;19991;-70
2022/01/19 02:50:21;;;;;;;;;;;;;;;;;;2144034;27;19927;-71
2022/01/19 02:51:41;;;;;;;;;;;;;;;;;;2144263;27;19926;-72
2022/01/19 02:53:03;;;;;;;;;;;;;;;;;;2144866;27;19927;-71
2022/01/19 02:54:24;;;;;;;;;;;;;;;;;;2144434;27;19927;-71
2022/01/19 02:55:46;;;;;;;;;;;;;;;;;;2144973;27;19967;-71
2022/01/19 02:56:51;;;;;;;;;;;;;;;;;;2144614;27;19923;-71
2022/01/19 02:57:57;;;;;;;;;;;;;;;;;;2135333;27;19962;-71
2022/01/19 02:59:14;;;;;;;;;;;;;;;;;;2136505;27;20743;-72
2022/01/19 03:09:42;;;;;;;;;;;;;;;;;;2144503;27;19930;-71
2022/01/19 03:10:46;;;;;;;;;;;;;;;;;;2144575;27;20053;-71
2022/01/19 03:11:50;;;;;;;;;;;;;;;;;;2144158;27;19953;-72
2022/01/19 03:12:54;;;;;;;;;;;;;;;;;;2135128;27;20708;-71
2022/01/19 03:13:58;;;;;;;;;;;;;;;;;;2127459;27;19931;-70
2022/01/19 03:15:03;;;;;;;;;;;;;;;;;;2127797;27;19961;-71
2022/01/19 03:16:06;;;;;;;;;;;;;;;;;;2136092;27;19928;-70
2022/01/19 03:17:11;;;;;;;;;;;;;;;;;;2134926;27;19924;-70
2022/01/19 03:18:14;;;;;;;;;;;;;;;;;;2127550;27;20009;-71
2022/01/19 03:19:17;;;;;;;;;;;;;;;;;;2136156;27;19927;-71
2022/01/19 03:20:20;;;;;;;;;;;;;;;;;;2144444;27;20061;-71
2022/01/19 03:21:25;;;;;;;;;;;;;;;;;;2135322;27;19931;-71
2022/01/19 03:22:36;;;;;;;;;;;;;;;;;;2136363;27;20065;-71
2022/01/19 03:23:40;;;;;;;;;;;;;;;;;;2144027;27;20652;-70
2022/01/19 03:24:49;;;;;;;;;;;;;;;;;;2144495;27;19927;-70
2022/01/19 03:25:51;;;;;;;;;;;;;;;;;;2144374;27;19927;-71
2022/01/19 03:26:54;;;;;;;;;;;;;;;;;;2144389;27;20057;-71
2022/01/19 03:27:56;;;;;;;;;;;;;;;;;;2144504;27;19930;-71
2022/01/19 03:28:59;;;;;;;;;;;;;;;;;;2135106;27;19924;-71
2022/01/19 03:30:01;;;;;;;;;;;;;;;;;;2127061;27;19982;-71
2022/01/19 03:31:04;;;;;;;;;;;;;;;;;;2134316;27;20778;-71
2022/01/19 03:32:08;;;;;;;;;;;;;;;;;;2144435;27;20061;-72
2022/01/19 03:33:11;;;;;;;;;;;;;;;;;;2144347;27;20752;-70
2022/01/19 03:34:15;;;;;;;;;;;;;;;;;;2144303;27;19962;-70
2022/01/19 03:35:18;;;;;;;;;;;;;;;;;;2134986;27;20819;-74
2022/01/19 03:36:22;;;;;;;;;;;;;;;;;;2136006;27;20663;-73
2022/01/19 03:37:23;;;;;;;;;;;;;;;;;;2135075;27;19934;-73
2022/01/19 03:38:26;;;;;;;;;;;;;;;;;;2126782;27;20936;-73
2022/01/19 03:39:29;;;;;;;;;;;;;;;;;;2127051;27;19931;-72
2022/01/19 03:40:31;;;;;;;;;;;;;;;;;;2126627;27;20730;-70
2022/01/19 03:41:34;;;;;;;;;;;;;;;;;;2126998;27;19924;-71
2022/01/19 03:42:36;;;;;;;;;;;;;;;;;;2126783;27;19932;-70
2022/01/19 03:43:39;;;;;;;;;;;;;;;;;;2126834;27;20827;-70
2022/01/19 03:44:41;;;;;;;;;;;;;;;;;;2126992;27;20089;-71
2022/01/19 03:45:51;;;;;;;;;;;;;;;;;;2135218;27;20711;-68
2022/01/19 03:46:59;;;;;;;;;;;;;;;;;;2144332;27;20047;-74
2022/01/19 03:49:23;;;;;;;;;;;;;;;;;;2137233;27;20719;-74
2022/01/19 03:50:25;;;;;;;;;;;;;;;;;;2135152;27;20703;-74
2022/01/19 03:51:28;;;;;;;;;;;;;;;;;;2126637;27;19927;-74
2022/01/19 03:52:31;;;;;;;;;;;;;;;;;;2126858;27;20647;-74
2022/01/19 03:53:34;;;;;;;;;;;;;;;;;;2135691;27;19928;-69
2022/01/19 03:54:36;;;;;;;;;;;;;;;;;;2144158;27;20022;-70
2022/01/19 03:55:39;;;;;;;;;;;;;;;;;;2144248;27;19993;-70
2022/01/19 03:56:40;;;;;;;;;;;;;;;;;;2144224;27;19930;-69
2022/01/19 03:57:42;;;;;;;;;;;;;;;;;;2144126;27;19927;-69
2022/01/19 03:58:44;;;;;;;;;;;;;;;;;;2144309;27;20003;-70
2022/01/19 03:59:46;;;;;;;;;;;;;;;;;;2134977;27;19980;-69
2022/01/19 04:00:53;;;;;;;;;;;;;;;;;;2135102;27;20101;-70
2022/01/19 04:01:57;;;;;;;;;;;;;;;;;;2144143;27;19927;-70
2022/01/19 04:03:00;;;;;;;;;;;;;;;;;;2143899;27;20634;-70
2022/01/19 04:04:24;;;;;;;;;;;;;;;;;;2134949;27;19957;-70
2022/01/19 04:05:41;;;;;;;;;;;;;;;;;;2129782;27;20061;-70
2022/01/19 04:07:07;;;;;;;;;;;;;;;;;;2137515;27;19950;-70
2022/01/19 04:08:11;;;;;;;;;;;;;;;;;;2144273;27;19934;-69
2022/01/19 04:09:13;;;;;;;;;;;;;;;;;;2143894;27;20009;-70
2022/01/19 04:10:16;;;;;;;;;;;;;;;;;;2144156;27;20004;-70
2022/01/19 04:11:21;;;;;;;;;;;;;;;;;;2134820;27;19935;-70
2022/01/19 04:13:10;;;;;;;;;;;;;;;;;;2127207;27;20014;-69
2022/01/19 04:14:21;;;;;;;;;;;;;;;;;;2136324;27;20740;-70
2022/01/19 04:15:20;;;;;;;;;;;;;;;;;;2143911;27;19927;-70
2022/01/19 04:16:21;;;;;;;;;;;;;;;;;;2134636;27;20035;-70
2022/01/19 04:17:24;;;;;;;;;;;;;;;;;;2135247;27;19929;-71
2022/01/19 04:18:26;;;;;;;;;;;;;;;;;;2144151;27;19927;-70
2022/01/19 04:20:37;;;;;;;;;;;;;;;;;;2135025;27;20732;-70
2022/01/19 04:21:40;;;;;;;;;;;;;;;;;;2143679;27;19923;-70
2022/01/19 04:22:42;;;;;;;;;;;;;;;;;;2143362;27;19978;-70
2022/01/19 04:23:48;;;;;;;;;;;;;;;;;;2134941;27;19980;-71
2022/01/19 04:24:49;;;;;;;;;;;;;;;;;;2135600;27;19928;-70
2022/01/19 04:25:51;;;;;;;;;;;;;;;;;;2144020;27;19927;-70
2022/01/19 04:28:22;;;;;;;;;;;;;;;;;;2119155;27;19924;-70
2022/01/19 04:29:24;;;;;;;;;;;;;;;;;;2133999;27;19923;-70
2022/01/19 04:30:27;;;;;;;;;;;;;;;;;;2125711;27;19949;-70
2022/01/19 04:31:32;;;;;;;;;;;;;;;;;;2126781;27;19928;-70
2022/01/19 04:33:41;;;;;;;;;;;;;;;;;;2143514;27;19930;-69
2022/01/19 04:34:45;;;;;;;;;;;;;;;;;;2142989;27;20053;-69
2022/01/19 04:35:51;;;;;;;;;;;;;;;;;;2133301;27;19927;-70
2022/01/19 05:03:53;;;;;;;;;;;;;;;;;;2142727;27;19983;-72
2022/01/19 05:05:22;;;;;;;;;;;;;;;;;;2142707;27;19940;-71
2022/01/19 05:06:21;;;;;;;;;;;;;;;;;;2141920;27;19927;-72
2022/01/19 05:07:33;;;;;;;;;;;;;;;;;;2142620;27;19927;-72
2022/01/19 05:13:38;;;;;;;;;;;;;;;;;;2143622;27;20649;-70
2022/01/19 05:14:40;;;;;;;;;;;;;;;;;;2134509;27;19928;-71
2022/01/19 05:15:42;;;;;;;;;;;;;;;;;;2126037;27;19982;-71
2022/01/19 05:16:44;;;;;;;;;;;;;;;;;;2134784;27;19928;-71
2022/01/19 05:17:46;;;;;;;;;;;;;;;;;;2134218;27;19966;-71
2022/01/19 05:18:48;;;;;;;;;;;;;;;;;;2126012;27;19927;-71
2022/01/19 05:19:50;;;;;;;;;;;;;;;;;;2134706;27;19923;-72
2022/01/19 05:20:52;;;;;;;;;;;;;;;;;;2143703;27;19927;-71
2022/01/19 05:21:54;;;;;;;;;;;;;;;;;;2134377;27;19924;-72
2022/01/19 05:22:56;;;;;;;;;;;;;;;;;;2125967;27;20050;-71
2022/01/19 05:24:04;;;;;;;;;;;;;;;;;;2134586;27;20068;-71
2022/01/19 05:25:06;;;;;;;;;;;;;;;;;;2143630;27;19930;-71
2022/01/19 05:26:08;;;;;;;;;;;;;;;;;;2143661;27;19923;-71
2022/01/19 05:27:10;;;;;;;;;;;;;;;;;;2134536;27;19923;-72
2022/01/19 05:28:12;;;;;;;;;;;;;;;;;;2134536;27;20743;-72
2022/01/19 05:29:13;;;;;;;;;;;;;;;;;;2134393;27;19930;-72
2022/01/19 05:30:17;;;;;;;;;;;;;;;;;;2126105;27;19986;-72
2022/01/19 05:31:19;;;;;;;;;;;;;;;;;;2126055;27;19928;-72
2022/01/19 05:32:22;;;;;;;;;;;;;;;;;;2126004;27;20727;-72
2022/01/19 05:33:25;;;;;;;;;;;;;;;;;;2126468;27;19967;-71
2022/01/19 05:34:27;;;;;;;;;;;;;;;;;;2134927;27;19923;-71
2022/01/19 05:35:30;;;;;;;;;;;;;;;;;;2143026;27;19937;-70
2022/01/19 05:36:32;;;;;;;;;;;;;;;;;;2134294;27;20045;-71
2022/01/19 05:37:36;;;;;;;;;;;;;;;;;;2134758;27;19931;-70
2022/01/19 05:38:38;;;;;;;;;;;;;;;;;;2143536;27;19962;-71
2022/01/19 05:39:41;;;;;;;;;;;;;;;;;;2134444;27;19931;-70
2022/01/19 05:40:43;;;;;;;;;;;;;;;;;;2126178;27;20062;-71
2022/01/19 05:41:47;;;;;;;;;;;;;;;;;;2134985;27;19930;-71
2022/01/19 05:42:49;;;;;;;;;;;;;;;;;;2134229;27;20832;-71
2022/01/19 05:43:52;;;;;;;;;;;;;;;;;;2134822;27;20053;-71
2022/01/19 05:44:54;;;;;;;;;;;;;;;;;;2143587;27;20680;-69
2022/01/19 05:45:56;;;;;;;;;;;;;;;;;;2143370;27;19927;-69
2022/01/19 05:46:58;;;;;;;;;;;;;;;;;;2143529;27;19927;-69
2022/01/19 05:48:01;;;;;;;;;;;;;;;;;;2134874;27;20937;-69
2022/01/19 05:49:03;;;;;;;;;;;;;;;;;;2139088;27;19927;-71
2022/01/19 05:50:05;;;;;;;;;;;;;;;;;;2143663;27;19934;-71
2022/01/19 05:51:07;;;;;;;;;;;;;;;;;;2143544;27;19930;-71
2022/01/19 05:52:09;;;;;;;;;;;;;;;;;;2143407;27;19923;-71
2022/01/19 05:53:11;;;;;;;;;;;;;;;;;;2142179;27;19927;-70
2022/01/19 05:54:12;;;;;;;;;;;;;;;;;;2143851;27;20005;-71
2022/01/19 05:55:14;;;;;;;;;;;;;;;;;;2153735;27;19922;-69
2022/01/19 05:56:15;;;;;;;;;;;;;;;;;;2153639;27;19923;-70
2022/01/19 05:57:17;;;;;;;;;;;;;;;;;;2153799;27;20035;-69
2022/01/19 05:58:19;;;;;;;;;;;;;;;;;;2153465;27;19934;-72
2022/01/19 05:59:22;;;;;;;;;;;;;;;;;;2153786;27;19930;-70
2022/01/19 06:00:24;;;;;;;;;;;;;;;;;;2144411;27;20001;-71
2022/01/19 06:01:26;;;;;;;;;;;;;;;;;;2144238;27;19927;-70
2022/01/19 06:02:28;;;;;;;;;;;;;;;;;;2144563;27;20610;-71
2022/01/19 06:03:29;;;;;;;;;;;;;;;;;;2153767;27;20057;-70
2022/01/19 06:04:32;;;;;;;;;;;;;;;;;;2153491;27;20633;-70
2022/01/19 06:05:34;;;;;;;;;;;;;;;;;;2144352;27;19930;-70
2022/01/19 06:06:36;;;;;;;;;;;;;;;;;;2144766;27;19927;-70
2022/01/19 06:07:44;;;;;;;;;;;;;;;;;;2153827;27;20780;-74
2022/01/19 06:08:58;;;;;;;;;;;;;;;;;;2144545;27;19928;-74
2022/01/19 06:10:06;;;;;;;;;;;;;;;;;;2146545;27;20019;-73
2022/01/19 06:11:08;;;;;;;;;;;;;;;;;;2153743;27;19923;-75
2022/01/19 06:12:10;;;;;;;;;;;;;;;;;;2144323;27;19923;-74
2022/01/19 06:13:12;;;;;;;;;;;;;;;;;;2144518;27;20006;-74
2022/01/19 06:14:14;;;;;;;;;;;;;;;;;;2153597;27;19927;-73
2022/01/19 06:15:16;;;;;;;;;;;;;;;;;;2153473;27;20289;-70
2022/01/19 06:16:18;;;;;;;;;;;;;;;;;;2144087;27;20804;-70
2022/01/19 06:17:19;;;;;;;;;;;;;;;;;;2144308;27;19923;-70
2022/01/19 06:18:22;;;;;;;;;;;;;;;;;;2153315;27;20628;-69
2022/01/19 06:19:23;;;;;;;;;;;;;;;;;;2144357;27;20069;-70
2022/01/19 06:20:25;;;;;;;;;;;;;;;;;;2144585;27;20018;-70
2022/01/19 06:21:28;;;;;;;;;;;;;;;;;;2144134;27;20650;-72
2022/01/19 06:22:30;;;;;;;;;;;;;;;;;;2144442;27;19938;-72
2022/01/19 06:23:34;;;;;;;;;;;;;;;;;;2153618;27;19923;-72
2022/01/19 06:24:37;;;;;;;;;;;;;;;;;;2147903;27;20250;-72
2022/01/19 06:25:39;;;;;;;;;;;;;;;;;;2153722;27;20054;-72
2022/01/19 06:26:41;;;;;;;;;;;;;;;;;;2153529;27;20607;-71
2022/01/19 06:27:43;;;;;;;;;;;;;;;;;;2144210;27;20629;-73
2022/01/19 06:28:45;;;;;;;;;;;;;;;;;;2139693;27;19929;-74
2022/01/19 06:29:46;;;;;;;;;;;;;;;;;;2153497;27;19933;-70
2022/01/19 06:30:48;;;;;;;;;;;;;;;;;;2144098;27;19927;-70
2022/01/19 06:31:50;;;;;;;;;;;;;;;;;;2144496;27;19961;-63
2022/01/19 06:32:53;;;;;;;;;;;;;;;;;;2133808;27;19989;-63
2022/01/19 06:33:55;;;;;;;;;;;;;;;;;;2131345;27;19923;-64
2022/01/19 06:34:57;;;;;;;;;;;;;;;;;;2141237;27;19938;-63
2022/01/19 06:35:59;;;;;;;;;;;;;;;;;;2133789;27;20019;-65
2022/01/19 06:37:01;;;;;;;;;;;;;;;;;;2133028;27;20066;-63
2022/01/19 06:38:03;;;;;;;;;;;;;;;;;;2133737;27;19927;-64
2022/01/19 06:39:05;;;;;;;;;;;;;;;;;;2133548;27;19931;-63
2022/01/19 06:40:07;;;;;;;;;;;;;;;;;;2142418;27;19954;-62
2022/01/19 06:41:10;;;;;;;;;;;;;;;;;;2143126;27;19927;-65
2022/01/19 06:42:13;;;;;;;;;;;;;;;;;;2141669;27;19927;-71
2022/01/19 06:43:15;;;;;;;;;;;;;;;;;;2141690;27;19927;-66
2022/01/19 06:44:18;;;;;;;;;;;;;;;;;;2142273;27;19927;-66
2022/01/19 06:45:23;;;;;;;;;;;;;;;;;;2142584;27;19931;-63
2022/01/19 06:46:25;;;;;;;;;;;;;;;;;;2133982;27;19938;-68
2022/01/19 06:47:26;;;;;;;;;;;;;;;;;;2125200;27;19970;-67
2022/01/19 06:48:28;;;;;;;;;;;;;;;;;;2134485;27;19949;-66
2022/01/19 06:49:30;;;;;;;;;;;;;;;;;;2140344;27;19979;-67
2022/01/19 06:50:32;;;;;;;;;;;;;;;;;;2143327;27;19963;-69
2022/01/19 06:51:35;;;;;;;;;;;;;;;;;;2143057;27;19927;-68
2022/01/19 06:52:37;;;;;;;;;;;;;;;;;;2134025;27;19935;-73
2022/01/19 06:53:40;;;;;;;;;;;;;;;;;;2129078;27;19932;-73
2022/01/19 06:54:42;;;;;;;;;;;;;;;;;;2134237;27;19927;-73
2022/01/19 06:55:45;;;;;;;;;;;;;;;;;;2125458;27;19934;-71
2022/01/19 06:56:47;;;;;;;;;;;;;;;;;;2125388;27;20887;-71
2022/01/19 06:57:49;;;;;;;;;;;;;;;;;;2124636;27;20008;-70
2022/01/19 06:58:53;;;;;;;;;;;;;;;;;;2134404;27;20746;-69
2022/01/19 06:59:56;;;;;;;;;;;;;;;;;;2143808;27;20820;-73
2022/01/19 07:00:58;;;;;;;;;;;;;;;;;;2134230;27;19930;-73
2022/01/19 07:02:00;;;;;;;;;;;;;;;;;;2125970;27;19927;-76
2022/01/19 07:03:02;;;;;;;;;;;;;;;;;;2124004;27;20700;-76
2022/01/19 07:04:05;;;;;;;;;;;;;;;;;;2134523;27;20000;-75
2022/01/19 07:05:07;;;;;;;;;;;;;;;;;;2134344;27;20623;-77
2022/01/19 07:06:11;;;;;;;;;;;;;;;;;;2133798;27;19924;-73
2022/01/19 07:07:14;;;;;;;;;;;;;;;;;;2135318;27;19934;-75
2022/01/19 07:08:17;;;;;;;;;;;;;;;;;;2133724;27;19931;-75
2022/01/19 07:09:20;;;;;;;;;;;;;;;;;;2134132;27;20744;-75
2022/01/19 07:10:23;;;;;;;;;;;;;;;;;;2143127;27;19923;-73
2022/01/19 07:11:25;;;;;;;;;;;;;;;;;;2144004;27;20003;-74
2022/01/19 07:12:29;;;;;;;;;;;;;;;;;;2134448;27;19923;-74
2022/01/19 07:13:31;;;;;;;;;;;;;;;;;;2134069;27;20004;-72
2022/01/19 07:14:34;;;;;;;;;;;;;;;;;;2143272;27;20377;-72
2022/01/19 07:15:40;;;;;;;;;;;;;;;;;;2134322;27;19970;-69
2022/01/19 07:16:43;;;;;;;;;;;;;;;;;;2132910;27;19965;-66
2022/01/19 07:17:45;;;;;;;;;;;;;;;;;;2133737;27;19987;-69
2022/01/19 07:18:47;;;;;;;;;;;;;;;;;;2142384;27;20053;-70
2022/01/19 07:19:49;;;;;;;;;;;;;;;;;;2133243;27;20858;-69
2022/01/19 07:20:51;;;;;;;;;;;;;;;;;;2134543;27;19927;-68
2022/01/19 07:21:55;;;;;;;;;;;;;;;;;;2133932;27;20750;-68
2022/01/19 07:23:01;;;;;;;;;;;;;;;;;;2134025;27;19928;-66
2022/01/19 07:24:05;;;;;;;;;;;;;;;;;;2135219;27;20045;-69
2022/01/19 07:25:08;;;;;;;;;;;;;;;;;;2142729;27;19927;-72
2022/01/19 07:26:11;;;;;;;;;;;;;;;;;;2134317;27;19927;-74
2022/01/19 07:27:14;;;;;;;;;;;;;;;;;;2126195;27;19928;-73
2022/01/19 07:28:19;;;;;;;;;;;;;;;;;;2135556;27;20780;-73
2022/01/19 07:29:23;;;;;;;;;;;;;;;;;;2142827;27;19931;-74
2022/01/19 07:30:28;;;;;;;;;;;;;;;;;;2142601;27;19927;-75
2022/01/19 07:31:33;;;;;;;;;;;;;;;;;;2133981;27;19927;-75
2022/01/19 07:32:36;;;;;;;;;;;;;;;;;;2126049;27;19924;-75
2022/01/19 07:33:40;;;;;;;;;;;;;;;;;;2136787;27;19935;-75
2022/01/19 07:34:44;;;;;;;;;;;;;;;;;;2142636;27;19954;-74
2022/01/19 07:35:51;;;;;;;;;;;;;;;;;;2133568;27;19993;-76
2022/01/19 07:36:57;;;;;;;;;;;;;;;;;;2133639;27;19924;-75
2022/01/19 07:37:59;;;;;;;;;;;;;;;;;;2133923;27;19985;-75
2022/01/19 07:39:04;;;;;;;;;;;;;;;;;;2126324;27;20048;-74
2022/01/19 07:40:07;;;;;;;;;;;;;;;;;;2125993;27;20002;-75
2022/01/19 07:41:11;;;;;;;;;;;;;;;;;;2134466;27;20790;-74
2022/01/19 07:42:15;;;;;;;;;;;;;;;;;;2134060;27;19927;-75
2022/01/19 07:43:19;;;;;;;;;;;;;;;;;;2133283;27;19935;-76
2022/01/19 07:44:24;;;;;;;;;;;;;;;;;;2126888;27;20634;-72
2022/01/19 07:45:27;;;;;;;;;;;;;;;;;;2125349;27;19935;-70
2022/01/19 07:46:29;;;;;;;;;;;;;;;;;;2135905;27;19931;-75
2022/01/19 07:47:34;;;;;;;;;;;;;;;;;;2144202;27;20057;-73
2022/01/19 07:48:36;;;;;;;;;;;;;;;;;;2144624;27;19923;-78
2022/01/19 07:49:38;;;;;;;;;;;;;;;;;;2135391;27;19958;-73
2022/01/19 07:50:40;;;;;;;;;;;;;;;;;;2135297;27;20135;-72
2022/01/19 07:51:42;;;;;;;;;;;;;;;;;;2132134;27;19934;-74
2022/01/19 07:52:45;;;;;;;;;;;;;;;;;;2136373;27;19931;-75
2022/01/19 07:53:49;;;;;;;;;;;;;;;;;;2135914;27;20748;-75
2022/01/19 07:54:52;;;;;;;;;;;;;;;;;;2138996;27;19928;-73
2022/01/19 07:55:55;;;;;;;;;;;;;;;;;;2138623;27;19934;-74
2022/01/19 07:56:58;;;;;;;;;;;;;;;;;;2131330;22;19929;-72
2022/01/19 07:57:59;;;;;;;;;;;;;;;;;;2110775;28;19929;-73
2022/01/19 07:59:02;;;;;;;;;;;;;;;;;;2108420;28;20054;-74
2022/01/19 08:00:03;;;;;;;;;;;;;;;;;;2112698;28;19928;-73
2022/01/19 08:01:07;;;;;;;;;;;;;;;;;;2106100;28;19975;-73
2022/01/19 08:02:12;;;;;;;;;;;;;;;;;;2109370;28;19928;-76
2022/01/19 08:03:14;;;;;;;;;;;;;;;;;;2112210;28;19932;-76
2022/01/19 08:04:18;;;;;;;;;;;;;;;;;;2112021;28;19929;-75
2022/01/19 08:05:21;;;;;;;;;;;;;;;;;;2111089;28;20742;-74
2022/01/19 08:06:24;;;;;;;;;;;;;;;;;;2109847;28;19928;-78
2022/01/19 08:07:26;;;;;;;;;;;;;;;;;;2109453;28;19924;-76
2022/01/19 08:08:36;;;;;;;;;;;;;;;;;;2112526;28;20683;-73
2022/01/19 08:09:40;;;;;;;;;;;;;;;;;;2108146;28;19931;-73
2022/01/19 08:10:45;;;;;;;;;;;;;;;;;;2115575;28;19924;-77
2022/01/19 08:11:48;;;;;;;;;;;;;;;;;;2115910;27;19929;-76
2022/01/19 08:12:52;;;;;;;;;;;;;;;;;;2115347;28;19928;-77
2022/01/19 08:13:56;;;;;;;;;;;;;;;;;;2112152;28;19936;-76
2022/01/19 08:14:59;;;;;;;;;;;;;;;;;;2115484;28;19935;-75
2022/01/19 08:16:02;;;;;;;;;;;;;;;;;;2111364;28;19924;-76
2022/01/19 08:17:05;;;;;;;;;;;;;;;;;;2114163;27;19989;-78
2022/01/19 08:18:07;;;;;;;;;;;;;;;;;;2109561;28;19924;-76
2022/01/19 08:19:11;;;;;;;;;;;;;;;;;;2108937;28;20010;-76
2022/01/19 08:20:14;;;;;;;;;;;;;;;;;;2108517;28;19924;-75
2022/01/19 08:21:18;;;;;;;;;;;;;;;;;;2114884;28;19924;-76
2022/01/19 08:22:21;;;;;;;;;;;;;;;;;;2110856;27;20026;-74
2022/01/19 08:23:24;;;;;;;;;;;;;;;;;;2119508;27;19935;-77
2022/01/19 08:24:26;;;;;;;;;;;;;;;;;;2107408;28;19928;-76
2022/01/19 08:25:29;;;;;;;;;;;;;;;;;;2111918;28;20045;-75
2022/01/19 08:26:31;;;;;;;;;;;;;;;;;;2114268;28;19928;-76
2022/01/19 08:27:34;;;;;;;;;;;;;;;;;;2106548;28;19925;-78
2022/01/19 08:28:37;;;;;;;;;;;;;;;;;;2109739;28;19928;-74
2022/01/19 08:29:39;;;;;;;;;;;;;;;;;;2113373;28;20694;-76
2022/01/19 08:30:42;;;;;;;;;;;;;;;;;;2106501;28;20690;-75
2022/01/19 08:31:44;;;;;;;;;;;;;;;;;;2115303;28;19924;-76
2022/01/19 08:32:47;;;;;;;;;;;;;;;;;;2116291;28;19928;-74
2022/01/19 08:33:51;;;;;;;;;;;;;;;;;;2108229;28;20736;-73